Banjar Tanggahananyar, Indonesia

12:10 PM WITA on May 26, 2017 (GMT +0800)
Gang Dieng VII | | Change Station

Elev 82 ft 8.67 °S, 115.18 °E | Updated 8 minutes ago

Rain
Rain
89.8 °F
Feels Like 108 °F
N
4.3
Wind Variable Wind from SE
Gusts 10.6 mph

Today
High -- | Low -- °F
--% Chance of Precip.
Yesterday
High -- | Low -- °F
Precip. -- in
Pressure 29.83 in
Visibility 6.2 miles
Clouds Scattered Clouds 1500 ft
Heat Index 108 °F
Dew Point 81 °F
Humidity 74%
Rainfall 0.00 in
Snow Depth Not available.
6:25 AM 6:06 PM
New Moon, 0% visible
METAR WADD 260330Z 11014KT 9999 SCT015 29/25 Q1010 NOSIG
Pressure 29.83 in
Visibility 6.2 miles
Clouds Scattered Clouds 1500 ft
Heat Index 108 °F
Dew Point 81 °F
Humidity 74%
Rainfall 0.00 in
Snow Depth Not available.
6:25 AM 6:06 PM
New Moon, 0% visible
METAR WADD 260330Z 11014KT 9999 SCT015 29/25 Q1010 NOSIG

Get Severe Weather Alerts

Thanks for signing up!

Be on the lookout for a verification email in your inbox.

You'll start receiving the daily forecast at 6 AM.

×

10-Day Weather Forecast

×

Almanac

Astronomy

May. 26, 2017 Rise Set
Actual Time
Civil Twilight
Nautical Twilight
Astronomical Twilight
Moon
Length of Visible Light
Length of Day
Tomorrow will be .
, % of the Moon is Illuminated

Today's Extremes

Country Highs Country Lows

Community

WunderPhotos

Category 6

Welcome to Category 6. This is the collective home for Weather Underground's featured writeups by Dr. Jeff Masters (right), Bob Henson (left), Chris Burt, and other regular contributors.

Nearby

Air Quality

  Air Quality AQ Index Pollutant
Not available.

Snow Depth

Station Depth Elevation

Earthquake Activity

City Distance Mag. Time & Date
Minimum magnitude displayed is 2.5.

Coastal Water Temperatures

Place Temperature

Stations

Nearby Weather Stations

Station Location Temp. Windchill Dew Point Humidity Wind Precip. Elev Updated Type